createdAt,value
2022-08-30T00:00:31.681Z,2.90
2022-08-30T00:05:37.471Z,3.00
2022-08-30T00:10:43.016Z,2.90
2022-08-30T00:15:47.466Z,2.55
2022-08-30T00:20:54.209Z,2.50
2022-08-30T00:25:58.995Z,2.50
2022-08-30T00:31:03.474Z,2.60
2022-08-30T00:36:09.037Z,2.40
2022-08-30T00:41:12.695Z,2.60
2022-08-30T00:46:16.333Z,2.50
2022-08-30T00:51:22.336Z,2.70
2022-08-30T00:56:28.013Z,2.20
2022-08-30T01:01:34.413Z,2.30
2022-08-30T01:06:40.200Z,2.40
2022-08-30T01:11:46.245Z,2.60
2022-08-30T01:16:52.065Z,2.50
2022-08-30T01:22:07.151Z,2.33
2022-08-30T01:27:12.188Z,2.17
2022-08-30T01:32:21.360Z,2.17
2022-08-30T01:37:32.990Z,2.47
2022-08-30T01:42:38.523Z,2.63
2022-08-30T01:47:42.577Z,2.30
2022-08-30T01:52:46.211Z,2.22
2022-08-30T01:57:51.311Z,2.75
2022-08-30T02:02:55.262Z,2.20
2022-08-30T02:07:59.011Z,2.42
2022-08-30T02:13:04.194Z,2.35
2022-08-30T02:18:07.995Z,2.10
2022-08-30T02:23:11.573Z,2.35
2022-08-30T02:28:18.511Z,2.33
2022-08-30T02:33:22.663Z,2.25
2022-08-30T02:38:27.120Z,2.22
2022-08-30T02:43:32.128Z,2.35
2022-08-30T02:48:35.861Z,2.45
2022-08-30T02:53:41.061Z,2.05
2022-08-30T02:58:48.263Z,2.28
2022-08-30T03:08:56.010Z,2.33
2022-08-30T03:14:01.001Z,2.58
2022-08-30T03:19:04.767Z,2.30
2022-08-30T03:24:08.995Z,2.20
2022-08-30T03:29:14.010Z,2.30
2022-08-30T03:34:18.107Z,2.13
2022-08-30T03:39:24.600Z,2.30
2022-08-30T03:44:29.804Z,2.30
2022-08-30T03:49:33.540Z,2.30
2022-08-30T03:54:37.859Z,2.50
2022-08-30T03:59:42.885Z,2.33
2022-08-30T04:04:46.687Z,2.40
2022-08-30T04:09:50.318Z,2.33
2022-08-30T04:14:56.104Z,2.08
2022-08-30T04:19:59.670Z,2.40
2022-08-30T04:25:03.188Z,2.50
2022-08-30T04:30:10.688Z,2.35
2022-08-30T04:35:15.598Z,2.13
2022-08-30T04:40:20.623Z,2.30
2022-08-30T04:45:25.567Z,2.60
2022-08-30T04:50:29.187Z,2.30
2022-08-30T04:55:33.304Z,2.60
2022-08-30T05:00:42.166Z,2.33
2022-08-30T05:05:50.044Z,2.40
2022-08-30T05:10:54.570Z,2.60
2022-08-30T05:16:00.312Z,2.60
2022-08-30T05:21:10.857Z,2.25
2022-08-30T05:26:20.450Z,2.47
2022-08-30T05:31:29.990Z,2.50
2022-08-30T05:36:38.168Z,2.60
2022-08-30T05:41:41.825Z,2.45
2022-08-30T05:46:47.978Z,2.55
2022-08-30T05:51:51.824Z,2.80
2022-08-30T05:56:55.531Z,2.60
2022-08-30T06:02:00.876Z,2.67
2022-08-30T06:07:05.288Z,2.80
2022-08-30T06:12:09.804Z,2.70
2022-08-30T06:17:14.805Z,2.50
2022-08-30T06:22:18.596Z,2.78
2022-08-30T06:27:22.246Z,2.47
2022-08-30T06:32:27.382Z,2.67
2022-08-30T06:37:33.041Z,2.70
2022-08-30T06:42:36.746Z,2.70
2022-08-30T06:47:42.282Z,2.55
2022-08-30T06:52:48.982Z,2.70
2022-08-30T06:57:52.764Z,2.90
2022-08-30T07:02:58.276Z,2.50
2022-08-30T07:08:01.967Z,2.63
2022-08-30T07:13:05.735Z,2.95
2022-08-30T07:18:28.797Z,2.53
2022-08-30T07:23:32.382Z,2.80
2022-08-30T07:28:38.643Z,2.67
2022-08-30T07:33:43.851Z,2.75
2022-08-30T07:38:48.208Z,3.13
2022-08-30T07:43:52.406Z,2.75
2022-08-30T07:48:57.662Z,3.03
2022-08-30T07:54:01.840Z,2.72
2022-08-30T07:59:05.636Z,2.90
2022-08-30T08:04:11.041Z,2.78
2022-08-30T08:09:16.229Z,2.83
2022-08-30T08:14:21.581Z,2.67
2022-08-30T08:19:26.878Z,2.90
2022-08-30T08:24:31.289Z,2.90
2022-08-30T08:29:35.093Z,3.00
2022-08-30T08:34:41.529Z,2.70
2022-08-30T08:39:45.378Z,2.90
2022-08-30T08:44:58.206Z,2.90
2022-08-30T08:50:09.758Z,3.03
2022-08-30T08:55:17.459Z,3.10
2022-08-30T09:00:21.634Z,3.00
2022-08-30T09:05:36.407Z,2.95
2022-08-30T09:10:50.553Z,2.95
2022-08-30T09:15:59.419Z,3.00
2022-08-30T09:21:09.895Z,2.90
2022-08-30T09:26:14.610Z,3.08
2022-08-30T09:31:24.549Z,3.10
2022-08-30T09:36:35.688Z,2.60
2022-08-30T09:41:42.680Z,2.90
2022-08-30T09:46:51.814Z,3.00
2022-08-30T09:52:10.601Z,2.72
2022-08-30T09:57:33.723Z,3.10
2022-08-30T10:03:07.060Z,2.70
2022-08-30T10:08:22.182Z,2.78
2022-08-30T10:13:48.030Z,2.88
2022-08-30T10:19:07.649Z,2.80
2022-08-30T10:24:20.926Z,2.80
2022-08-30T10:29:32.783Z,2.85
2022-08-30T10:34:42.068Z,2.65
2022-08-30T10:39:51.645Z,2.88
2022-08-30T10:45:07.283Z,2.75
2022-08-30T10:50:23.059Z,2.53
2022-08-30T10:55:35.782Z,2.90
2022-08-30T11:00:54.970Z,3.22
2022-08-30T11:06:16.955Z,2.80
2022-08-30T11:11:36.201Z,2.80
2022-08-30T11:16:50.996Z,2.90
2022-08-30T11:21:55.557Z,2.90
2022-08-30T11:27:03.575Z,2.90
2022-08-30T11:32:59.887Z,2.60
2022-08-30T11:38:14.498Z,2.90
2022-08-30T12:12:54.920Z,3.22
2022-08-30T12:18:18.594Z,3.05
2022-08-30T12:23:44.759Z,2.88
2022-08-30T12:28:51.418Z,2.92
2022-08-30T12:34:00.701Z,2.60
2022-08-30T12:39:26.931Z,2.50
2022-08-30T12:44:31.210Z,2.83
2022-08-30T12:49:38.369Z,2.75
2022-08-30T12:54:44.599Z,2.70
2022-08-30T12:59:59.732Z,2.90
2022-08-30T13:05:45.524Z,2.65
2022-08-30T13:11:05.805Z,2.80
2022-08-30T13:16:26.522Z,2.60
2022-08-30T13:21:35.061Z,2.45
2022-08-30T13:26:41.210Z,2.58
2022-08-30T13:31:45.522Z,2.45
2022-08-30T13:36:59.110Z,2.60
2022-08-30T13:47:36.994Z,2.25
2022-08-30T13:52:45.550Z,2.20
2022-08-30T13:57:54.793Z,2.50
2022-08-30T14:02:59.985Z,2.40
2022-08-30T14:08:05.155Z,2.58
2022-08-30T14:13:11.910Z,2.65
2022-08-30T14:18:18.228Z,2.70
2022-08-30T14:23:21.977Z,3.10
2022-08-30T14:28:29.931Z,3.00
2022-08-30T14:33:34.222Z,3.10
2022-08-30T14:38:38.127Z,3.13
2022-08-30T14:43:44.115Z,3.20
2022-08-30T14:48:49.083Z,2.83
2022-08-30T14:53:57.102Z,3.40
2022-08-30T14:59:04.485Z,2.90
2022-08-30T15:04:11.781Z,3.00
2022-08-30T15:14:33.153Z,2.70
2022-08-30T15:19:36.975Z,2.70
2022-08-30T15:24:43.493Z,2.60
2022-08-30T15:29:53.995Z,2.72
2022-08-30T15:34:57.763Z,2.80
2022-08-30T15:40:04.709Z,2.10
2022-08-30T15:45:12.293Z,2.60
2022-08-30T15:50:16.099Z,2.40
2022-08-30T15:55:19.858Z,2.40
2022-08-30T16:00:24.856Z,2.60
2022-08-30T16:05:29.410Z,2.45
2022-08-30T16:10:33.024Z,2.67
2022-08-30T16:15:40.634Z,3.50
2022-08-30T16:20:45.435Z,2.95
2022-08-30T16:25:49.070Z,2.80
2022-08-30T16:30:56.464Z,2.70
2022-08-30T16:36:00.522Z,2.30
2022-08-30T16:41:07.796Z,2.40
2022-08-30T16:46:22.609Z,2.30
2022-08-30T16:51:32.327Z,2.40
2022-08-30T16:56:38.552Z,2.40
2022-08-30T17:01:44.707Z,2.50
2022-08-30T17:06:49.950Z,2.53
2022-08-30T17:11:53.896Z,2.30
2022-08-30T17:17:00.449Z,2.55
2022-08-30T17:22:04.790Z,2.55
2022-08-30T17:27:09.298Z,2.60
2022-08-30T17:32:14.381Z,2.40
2022-08-30T17:37:20.381Z,2.45
2022-08-30T17:42:23.973Z,2.38
2022-08-30T17:47:36.515Z,2.10
2022-08-30T17:52:40.783Z,2.00
2022-08-30T17:57:44.387Z,2.00
2022-08-30T18:02:49.607Z,1.90
2022-08-30T18:07:53.254Z,1.85
2022-08-30T18:12:56.835Z,1.80
2022-08-30T18:18:04.254Z,1.73
2022-08-30T18:23:08.075Z,1.80
2022-08-30T18:28:12.939Z,1.95
2022-08-30T18:33:18.448Z,1.80
2022-08-30T18:38:24.270Z,1.95
2022-08-30T18:43:31.047Z,1.73
2022-08-30T18:48:37.284Z,1.52
2022-08-30T18:58:48.618Z,1.70
2022-08-30T19:03:53.684Z,1.98
2022-08-30T19:08:57.692Z,1.80
2022-08-30T19:14:03.836Z,1.70
2022-08-30T19:19:10.176Z,1.67
2022-08-30T19:24:17.852Z,2.03
2022-08-30T19:29:22.436Z,1.80
2022-08-30T19:34:29.160Z,1.90
2022-08-30T19:39:32.778Z,1.70
2022-08-30T19:44:38.962Z,1.60
2022-08-30T19:49:44.034Z,1.60
2022-08-30T19:54:47.841Z,1.50
2022-08-30T19:59:51.742Z,1.60
2022-08-30T20:04:58.105Z,1.60
2022-08-30T20:10:03.724Z,1.50
2022-08-30T20:15:13.246Z,1.60
2022-08-30T20:20:22.766Z,1.65
2022-08-30T20:25:27.596Z,1.50
2022-08-30T20:30:32.264Z,1.70
2022-08-30T20:35:38.651Z,1.70
2022-08-30T20:40:42.257Z,1.52
2022-08-30T20:45:46.864Z,1.40
2022-08-30T20:50:52.042Z,1.50
2022-08-30T20:55:55.816Z,1.38
2022-08-30T21:00:59.823Z,1.42
2022-08-30T21:06:05.615Z,1.70
2022-08-30T21:11:09.645Z,1.50
2022-08-30T21:16:13.480Z,1.83
2022-08-30T21:21:25.487Z,1.30
2022-08-30T21:26:31.450Z,1.50
2022-08-30T21:31:37.851Z,1.30
2022-08-30T21:36:49.061Z,1.20
2022-08-30T21:41:57.023Z,1.40
2022-08-30T21:47:00.674Z,1.60
2022-08-30T21:52:05.877Z,1.40
2022-08-30T21:57:09.559Z,1.33
2022-08-30T22:02:13.307Z,1.55
2022-08-30T22:07:18.292Z,1.50
2022-08-30T22:12:21.874Z,1.48
2022-08-30T22:17:29.610Z,1.50
2022-08-30T22:22:34.766Z,1.30
2022-08-30T22:27:38.480Z,1.50
2022-08-30T22:32:42.144Z,1.23
2022-08-30T22:37:53.342Z,1.40
2022-08-30T22:42:57.436Z,1.30
2022-08-30T22:48:01.004Z,1.20
2022-08-30T22:53:06.620Z,1.20
2022-08-30T22:58:10.216Z,1.38
2022-08-30T23:03:14.122Z,1.30
2022-08-30T23:08:19.291Z,1.20
2022-08-30T23:13:22.859Z,1.40
2022-08-30T23:18:26.685Z,1.30
2022-08-30T23:23:49.570Z,1.17
2022-08-30T23:29:10.525Z,1.20
2022-08-30T23:34:31.867Z,1.38
2022-08-30T23:39:54.330Z,1.20
2022-08-30T23:45:15.764Z,1.30
2022-08-30T23:50:37.237Z,1.10
2022-08-30T23:56:00.106Z,1.30
